Terminal Aerodrome Forecast
Issued by NWS Anchorage, AK

Home | Current Version | Previous Version | Text Only | Print | Product List | Glossary On
Versions: 1 2 3 4 5 6 7 8 9 10 11 12 13 14 15 16 17 18 19 20 21 22 23 24 25 26 27
000
FTAK31 PANC 020542
TAFANC
TAF
PANC 020542Z 0206/0312 19008G15KT P6SM FEW040 SCT080 BKN150
     FM022000 17006KT P6SM VCSH SCT040 BKN060
     FM030200 VRB06KT P6SM -SHRA SCT035 BKN050=

USA.gov is the U.S. government's official web portal to all federal, state and local government web resources and services.